sensor_id;sensor_type;location;lat;lon;timestamp;temperature;humidity
45761;DHT22;31471;51.040;14.414;2022-11-20T00:00:52;-4.70;99.90
45761;DHT22;31471;51.040;14.414;2022-11-20T00:03:18;-4.70;99.90
45761;DHT22;31471;51.040;14.414;2022-11-20T00:05:43;-4.70;99.90
45761;DHT22;31471;51.040;14.414;2022-11-20T00:08:09;-4.70;99.90
45761;DHT22;31471;51.040;14.414;2022-11-20T00:10:38;-4.70;99.90
45761;DHT22;31471;51.040;14.414;2022-11-20T00:13:04;-4.70;99.90
45761;DHT22;31471;51.040;14.414;2022-11-20T00:15:30;-4.60;99.90
45761;DHT22;31471;51.040;14.414;2022-11-20T00:17:55;-4.60;99.90
45761;DHT22;31471;51.040;14.414;2022-11-20T00:20:21;-4.60;99.90
45761;DHT22;31471;51.040;14.414;2022-11-20T00:22:47;-4.60;99.90
45761;DHT22;31471;51.040;14.414;2022-11-20T00:25:12;-4.70;99.90
45761;DHT22;31471;51.040;14.414;2022-11-20T00:27:38;-4.60;99.90
45761;DHT22;31471;51.040;14.414;2022-11-20T00:30:04;-4.60;99.90
45761;DHT22;31471;51.040;14.414;2022-11-20T00:32:30;-4.60;99.90
45761;DHT22;31471;51.040;14.414;2022-11-20T00:34:55;-4.60;99.90
45761;DHT22;31471;51.040;14.414;2022-11-20T00:37:21;-4.50;99.90
45761;DHT22;31471;51.040;14.414;2022-11-20T00:39:46;-4.60;99.90
45761;DHT22;31471;51.040;14.414;2022-11-20T00:42:12;-4.60;99.90
45761;DHT22;31471;51.040;14.414;2022-11-20T00:44:38;-4.60;99.90
45761;DHT22;31471;51.040;14.414;2022-11-20T00:47:03;-4.60;99.90
45761;DHT22;31471;51.040;14.414;2022-11-20T00:49:29;-4.60;99.90
45761;DHT22;31471;51.040;14.414;2022-11-20T00:51:54;-4.60;99.90
45761;DHT22;31471;51.040;14.414;2022-11-20T00:54:20;-4.60;99.90
45761;DHT22;31471;51.040;14.414;2022-11-20T00:56:45;-4.60;99.90
45761;DHT22;31471;51.040;14.414;2022-11-20T00:59:11;-4.50;99.90
45761;DHT22;31471;51.040;14.414;2022-11-20T01:01:37;-4.50;99.90
45761;DHT22;31471;51.040;14.414;2022-11-20T01:04:03;-4.60;99.90
45761;DHT22;31471;51.040;14.414;2022-11-20T01:06:29;-4.50;99.90
45761;DHT22;31471;51.040;14.414;2022-11-20T01:08:58;-4.60;99.90
45761;DHT22;31471;51.040;14.414;2022-11-20T01:11:27;-4.60;99.90
45761;DHT22;31471;51.040;14.414;2022-11-20T01:13:54;-4.60;99.90
45761;DHT22;31471;51.040;14.414;2022-11-20T01:16:26;-4.70;99.90
45761;DHT22;31471;51.040;14.414;2022-11-20T01:18:53;-4.70;99.90
45761;DHT22;31471;51.040;14.414;2022-11-20T01:21:24;-4.70;99.90
45761;DHT22;31471;51.040;14.414;2022-11-20T01:23:51;-4.80;99.90
45761;DHT22;31471;51.040;14.414;2022-11-20T01:26:22;-4.80;99.90
45761;DHT22;31471;51.040;14.414;2022-11-20T01:28:49;-4.80;99.90
45761;DHT22;31471;51.040;14.414;2022-11-20T01:31:35;-4.80;99.90
45761;DHT22;31471;51.040;14.414;2022-11-20T01:34:03;-4.70;99.90
45761;DHT22;31471;51.040;14.414;2022-11-20T01:36:30;-4.80;99.90
45761;DHT22;31471;51.040;14.414;2022-11-20T01:39:02;-4.70;99.90
45761;DHT22;31471;51.040;14.414;2022-11-20T01:41:32;-4.70;99.90
45761;DHT22;31471;51.040;14.414;2022-11-20T01:44:21;-4.80;99.90
45761;DHT22;31471;51.040;14.414;2022-11-20T01:46:59;-4.80;99.90
45761;DHT22;31471;51.040;14.414;2022-11-20T01:52:45;-4.80;99.90
45761;DHT22;31471;51.040;14.414;2022-11-20T01:55:17;-4.80;99.90
45761;DHT22;31471;51.040;14.414;2022-11-20T01:57:45;-4.80;99.90
45761;DHT22;31471;51.040;14.414;2022-11-20T02:00:15;-4.80;99.90
45761;DHT22;31471;51.040;14.414;2022-11-20T02:02:45;-4.70;99.90
45761;DHT22;31471;51.040;14.414;2022-11-20T02:05:22;-4.70;99.90
45761;DHT22;31471;51.040;14.414;2022-11-20T02:07:48;-4.70;99.90
45761;DHT22;31471;51.040;14.414;2022-11-20T02:10:15;-4.60;99.90
45761;DHT22;31471;51.040;14.414;2022-11-20T02:12:40;-4.60;99.90
45761;DHT22;31471;51.040;14.414;2022-11-20T02:15:25;-4.60;99.90
45761;DHT22;31471;51.040;14.414;2022-11-20T02:17:50;-4.60;99.90
45761;DHT22;31471;51.040;14.414;2022-11-20T02:20:16;-4.60;99.90
45761;DHT22;31471;51.040;14.414;2022-11-20T02:22:55;-4.60;99.90
45761;DHT22;31471;51.040;14.414;2022-11-20T02:25:24;-4.50;99.90
45761;DHT22;31471;51.040;14.414;2022-11-20T02:27:50;-4.60;99.90
45761;DHT22;31471;51.040;14.414;2022-11-20T02:30:16;-4.60;99.90
45761;DHT22;31471;51.040;14.414;2022-11-20T02:32:42;-4.60;99.90
45761;DHT22;31471;51.040;14.414;2022-11-20T02:35:08;-4.60;99.90
45761;DHT22;31471;51.040;14.414;2022-11-20T02:37:36;-4.60;99.90
45761;DHT22;31471;51.040;14.414;2022-11-20T02:40:02;-4.70;99.90
45761;DHT22;31471;51.040;14.414;2022-11-20T02:42:28;-4.70;99.90
45761;DHT22;31471;51.040;14.414;2022-11-20T02:44:53;-4.60;99.90
45761;DHT22;31471;51.040;14.414;2022-11-20T02:47:19;-4.60;99.90
45761;DHT22;31471;51.040;14.414;2022-11-20T02:49:44;-4.70;99.90
45761;DHT22;31471;51.040;14.414;2022-11-20T02:52:10;-4.60;99.90
45761;DHT22;31471;51.040;14.414;2022-11-20T02:54:35;-4.70;99.90
45761;DHT22;31471;51.040;14.414;2022-11-20T02:57:01;-4.70;99.90
45761;DHT22;31471;51.040;14.414;2022-11-20T02:59:26;-4.70;99.90
45761;DHT22;31471;51.040;14.414;2022-11-20T03:01:52;-4.70;99.90
45761;DHT22;31471;51.040;14.414;2022-11-20T03:04:18;-4.70;99.90
45761;DHT22;31471;51.040;14.414;2022-11-20T03:06:43;-4.70;99.90
45761;DHT22;31471;51.040;14.414;2022-11-20T03:09:09;-4.70;99.90
45761;DHT22;31471;51.040;14.414;2022-11-20T03:11:34;-4.80;99.90
45761;DHT22;31471;51.040;14.414;2022-11-20T03:14:04;-4.70;99.90
45761;DHT22;31471;51.040;14.414;2022-11-20T03:16:31;-4.70;99.90
45761;DHT22;31471;51.040;14.414;2022-11-20T03:18:56;-4.70;99.90
45761;DHT22;31471;51.040;14.414;2022-11-20T03:21:22;-4.70;99.90
45761;DHT22;31471;51.040;14.414;2022-11-20T03:23:48;-4.70;99.90
45761;DHT22;31471;51.040;14.414;2022-11-20T03:26:17;-4.70;99.90
45761;DHT22;31471;51.040;14.414;2022-11-20T03:28:52;-4.70;99.90
45761;DHT22;31471;51.040;14.414;2022-11-20T03:31:20;-4.70;99.90
45761;DHT22;31471;51.040;14.414;2022-11-20T03:33:46;-4.80;99.90
45761;DHT22;31471;51.040;14.414;2022-11-20T03:36:12;-4.90;99.90
45761;DHT22;31471;51.040;14.414;2022-11-20T03:38:38;-4.80;99.90
45761;DHT22;31471;51.040;14.414;2022-11-20T03:41:08;-5.00;99.90
45761;DHT22;31471;51.040;14.414;2022-11-20T03:43:34;-5.00;99.90
45761;DHT22;31471;51.040;14.414;2022-11-20T03:46:00;-5.00;99.90
45761;DHT22;31471;51.040;14.414;2022-11-20T03:48:26;-5.10;99.90
45761;DHT22;31471;51.040;14.414;2022-11-20T03:50:53;-5.10;99.90
45761;DHT22;31471;51.040;14.414;2022-11-20T03:53:19;-5.10;99.90
45761;DHT22;31471;51.040;14.414;2022-11-20T03:55:50;-5.20;99.90
45761;DHT22;31471;51.040;14.414;2022-11-20T03:58:15;-5.20;99.90
45761;DHT22;31471;51.040;14.414;2022-11-20T04:00:41;-5.20;99.90
45761;DHT22;31471;51.040;14.414;2022-11-20T04:03:06;-5.30;99.90
45761;DHT22;31471;51.040;14.414;2022-11-20T04:05:33;-5.20;99.90
45761;DHT22;31471;51.040;14.414;2022-11-20T04:07:58;-5.30;99.90
45761;DHT22;31471;51.040;14.414;2022-11-20T04:10:24;-5.30;99.90
45761;DHT22;31471;51.040;14.414;2022-11-20T04:12:49;-5.30;99.90
45761;DHT22;31471;51.040;14.414;2022-11-20T04:15:15;-5.30;99.90
45761;DHT22;31471;51.040;14.414;2022-11-20T04:17:40;-5.40;99.90
45761;DHT22;31471;51.040;14.414;2022-11-20T04:20:06;-5.40;99.90
45761;DHT22;31471;51.040;14.414;2022-11-20T04:22:32;-5.30;99.90
45761;DHT22;31471;51.040;14.414;2022-11-20T04:24:57;-5.40;99.90
45761;DHT22;31471;51.040;14.414;2022-11-20T04:27:23;-5.40;99.90
45761;DHT22;31471;51.040;14.414;2022-11-20T04:29:48;-5.40;99.90
45761;DHT22;31471;51.040;14.414;2022-11-20T04:32:14;-5.40;99.90
45761;DHT22;31471;51.040;14.414;2022-11-20T04:34:40;-5.40;99.90
45761;DHT22;31471;51.040;14.414;2022-11-20T04:37:05;-5.40;99.90
45761;DHT22;31471;51.040;14.414;2022-11-20T04:39:31;-5.30;99.90
45761;DHT22;31471;51.040;14.414;2022-11-20T04:41:56;-5.30;99.90
45761;DHT22;31471;51.040;14.414;2022-11-20T04:44:41;-5.40;99.90
45761;DHT22;31471;51.040;14.414;2022-11-20T04:47:06;-5.30;99.90
45761;DHT22;31471;51.040;14.414;2022-11-20T04:49:32;-5.30;99.90
45761;DHT22;31471;51.040;14.414;2022-11-20T04:51:57;-5.30;99.90
45761;DHT22;31471;51.040;14.414;2022-11-20T04:54:23;-5.30;99.90
45761;DHT22;31471;51.040;14.414;2022-11-20T04:56:49;-5.20;99.90
45761;DHT22;31471;51.040;14.414;2022-11-20T04:59:15;-5.20;99.90
45761;DHT22;31471;51.040;14.414;2022-11-20T05:01:40;-5.20;99.90
45761;DHT22;31471;51.040;14.414;2022-11-20T05:04:06;-5.20;99.90
45761;DHT22;31471;51.040;14.414;2022-11-20T05:06:32;-5.20;99.90
45761;DHT22;31471;51.040;14.414;2022-11-20T05:08:57;-5.20;99.90
45761;DHT22;31471;51.040;14.414;2022-11-20T05:11:23;-5.20;99.90
45761;DHT22;31471;51.040;14.414;2022-11-20T05:13:49;-5.20;99.90
45761;DHT22;31471;51.040;14.414;2022-11-20T05:16:17;-5.20;99.90
45761;DHT22;31471;51.040;14.414;2022-11-20T05:18:43;-5.20;99.90
45761;DHT22;31471;51.040;14.414;2022-11-20T05:21:09;-5.10;99.90
45761;DHT22;31471;51.040;14.414;2022-11-20T05:23:35;-5.10;99.90
45761;DHT22;31471;51.040;14.414;2022-11-20T05:26:01;-5.20;99.90
45761;DHT22;31471;51.040;14.414;2022-11-20T05:28:28;-5.10;99.90
45761;DHT22;31471;51.040;14.414;2022-11-20T05:30:54;-5.10;99.90
45761;DHT22;31471;51.040;14.414;2022-11-20T05:33:19;-5.10;99.90
45761;DHT22;31471;51.040;14.414;2022-11-20T05:35:45;-5.10;99.90
45761;DHT22;31471;51.040;14.414;2022-11-20T05:38:11;-5.10;99.90
45761;DHT22;31471;51.040;14.414;2022-11-20T05:40:36;-5.10;99.90
45761;DHT22;31471;51.040;14.414;2022-11-20T05:43:02;-5.10;99.90
45761;DHT22;31471;51.040;14.414;2022-11-20T05:45:28;-5.10;99.90
45761;DHT22;31471;51.040;14.414;2022-11-20T05:47:57;-5.10;99.90
45761;DHT22;31471;51.040;14.414;2022-11-20T05:50:22;-5.00;99.90
45761;DHT22;31471;51.040;14.414;2022-11-20T05:52:48;-5.00;99.90
45761;DHT22;31471;51.040;14.414;2022-11-20T05:55:13;-5.00;99.90
45761;DHT22;31471;51.040;14.414;2022-11-20T05:57:39;-5.00;99.90
45761;DHT22;31471;51.040;14.414;2022-11-20T06:00:05;-5.00;99.90
45761;DHT22;31471;51.040;14.414;2022-11-20T06:02:30;-5.00;99.90
45761;DHT22;31471;51.040;14.414;2022-11-20T06:04:59;-5.00;99.90
45761;DHT22;31471;51.040;14.414;2022-11-20T06:07:24;-4.90;99.90
45761;DHT22;31471;51.040;14.414;2022-11-20T06:09:50;-4.90;99.90
45761;DHT22;31471;51.040;14.414;2022-11-20T06:12:16;-4.90;99.90
45761;DHT22;31471;51.040;14.414;2022-11-20T06:14:41;-4.80;99.90
45761;DHT22;31471;51.040;14.414;2022-11-20T06:17:07;-4.80;99.90
45761;DHT22;31471;51.040;14.414;2022-11-20T06:19:32;-4.80;99.90
45761;DHT22;31471;51.040;14.414;2022-11-20T06:21:58;-4.80;99.90
45761;DHT22;31471;51.040;14.414;2022-11-20T06:24:23;-4.80;99.90
45761;DHT22;31471;51.040;14.414;2022-11-20T06:26:50;-4.80;99.90
45761;DHT22;31471;51.040;14.414;2022-11-20T06:29:16;-4.70;99.90
45761;DHT22;31471;51.040;14.414;2022-11-20T06:31:41;-4.70;99.90
45761;DHT22;31471;51.040;14.414;2022-11-20T06:34:07;-4.60;99.90
45761;DHT22;31471;51.040;14.414;2022-11-20T06:36:33;-4.60;99.90
45761;DHT22;31471;51.040;14.414;2022-11-20T06:38:59;-4.50;99.90
45761;DHT22;31471;51.040;14.414;2022-11-20T06:41:25;-4.50;99.90
45761;DHT22;31471;51.040;14.414;2022-11-20T06:43:51;-4.40;99.90
45761;DHT22;31471;51.040;14.414;2022-11-20T06:46:17;-4.30;99.90
45761;DHT22;31471;51.040;14.414;2022-11-20T06:48:44;-4.20;99.90
45761;DHT22;31471;51.040;14.414;2022-11-20T06:51:10;-4.20;99.90
45761;DHT22;31471;51.040;14.414;2022-11-20T06:53:36;-4.10;99.90
45761;DHT22;31471;51.040;14.414;2022-11-20T06:56:02;-4.20;99.90
45761;DHT22;31471;51.040;14.414;2022-11-20T06:58:28;-4.10;99.90
45761;DHT22;31471;51.040;14.414;2022-11-20T07:01:09;-4.10;99.90
45761;DHT22;31471;51.040;14.414;2022-11-20T07:03:34;-4.00;99.90
45761;DHT22;31471;51.040;14.414;2022-11-20T07:06:00;-4.00;99.90
45761;DHT22;31471;51.040;14.414;2022-11-20T07:08:26;-4.00;99.90
45761;DHT22;31471;51.040;14.414;2022-11-20T07:10:52;-4.00;99.90
45761;DHT22;31471;51.040;14.414;2022-11-20T07:13:18;-4.00;99.90
45761;DHT22;31471;51.040;14.414;2022-11-20T07:15:43;-3.90;99.90
45761;DHT22;31471;51.040;14.414;2022-11-20T07:18:09;-4.00;99.90
45761;DHT22;31471;51.040;14.414;2022-11-20T07:20:35;-3.90;99.90
45761;DHT22;31471;51.040;14.414;2022-11-20T07:23:00;-3.80;99.90
45761;DHT22;31471;51.040;14.414;2022-11-20T07:25:27;-3.80;99.90
45761;DHT22;31471;51.040;14.414;2022-11-20T07:27:57;-3.80;99.90
45761;DHT22;31471;51.040;14.414;2022-11-20T07:30:22;-3.70;99.90
45761;DHT22;31471;51.040;14.414;2022-11-20T07:32:51;-3.80;99.90
45761;DHT22;31471;51.040;14.414;2022-11-20T07:35:17;-3.90;99.90
45761;DHT22;31471;51.040;14.414;2022-11-20T07:37:43;-3.90;99.90
45761;DHT22;31471;51.040;14.414;2022-11-20T07:40:09;-3.80;99.90
45761;DHT22;31471;51.040;14.414;2022-11-20T07:42:34;-3.80;99.90
45761;DHT22;31471;51.040;14.414;2022-11-20T07:45:01;-3.70;99.90
45761;DHT22;31471;51.040;14.414;2022-11-20T07:47:26;-3.70;99.90
45761;DHT22;31471;51.040;14.414;2022-11-20T07:49:52;-3.60;99.90
45761;DHT22;31471;51.040;14.414;2022-11-20T07:52:17;-3.60;99.90
45761;DHT22;31471;51.040;14.414;2022-11-20T07:54:43;-3.50;99.90
45761;DHT22;31471;51.040;14.414;2022-11-20T07:57:08;-3.40;99.90
45761;DHT22;31471;51.040;14.414;2022-11-20T07:59:34;-3.30;99.90
45761;DHT22;31471;51.040;14.414;2022-11-20T08:01:59;-3.40;99.90
45761;DHT22;31471;51.040;14.414;2022-11-20T08:04:25;-3.30;99.90
45761;DHT22;31471;51.040;14.414;2022-11-20T08:06:52;-3.40;99.90
45761;DHT22;31471;51.040;14.414;2022-11-20T08:09:18;-3.30;99.90
45761;DHT22;31471;51.040;14.414;2022-11-20T08:11:43;-3.30;99.90
45761;DHT22;31471;51.040;14.414;2022-11-20T08:14:28;-3.30;99.90
45761;DHT22;31471;51.040;14.414;2022-11-20T08:16:53;-3.30;99.90
45761;DHT22;31471;51.040;14.414;2022-11-20T08:19:19;-3.30;99.90
45761;DHT22;31471;51.040;14.414;2022-11-20T08:21:45;-3.10;99.90
45761;DHT22;31471;51.040;14.414;2022-11-20T08:24:11;-3.10;99.90
45761;DHT22;31471;51.040;14.414;2022-11-20T08:26:37;-3.10;99.90
45761;DHT22;31471;51.040;14.414;2022-11-20T08:29:04;-2.90;99.90
45761;DHT22;31471;51.040;14.414;2022-11-20T08:31:30;-2.90;99.90
45761;DHT22;31471;51.040;14.414;2022-11-20T08:33:56;-2.80;99.90
45761;DHT22;31471;51.040;14.414;2022-11-20T08:36:22;-2.90;99.90
45761;DHT22;31471;51.040;14.414;2022-11-20T08:38:49;-2.80;99.90
45761;DHT22;31471;51.040;14.414;2022-11-20T08:41:15;-2.80;99.90
45761;DHT22;31471;51.040;14.414;2022-11-20T08:44:04;-2.70;99.90
45761;DHT22;31471;51.040;14.414;2022-11-20T08:46:38;-2.70;99.90
45761;DHT22;31471;51.040;14.414;2022-11-20T08:49:09;-2.60;99.90
45761;DHT22;31471;51.040;14.414;2022-11-20T08:51:36;-2.60;99.90
45761;DHT22;31471;51.040;14.414;2022-11-20T08:54:03;-2.50;99.90
45761;DHT22;31471;51.040;14.414;2022-11-20T08:56:29;-2.40;99.90
45761;DHT22;31471;51.040;14.414;2022-11-20T08:58:54;-2.40;99.90
45761;DHT22;31471;51.040;14.414;2022-11-20T09:01:21;-2.40;99.90
45761;DHT22;31471;51.040;14.414;2022-11-20T09:03:47;-2.50;99.90
45761;DHT22;31471;51.040;14.414;2022-11-20T09:06:13;-2.40;99.90
45761;DHT22;31471;51.040;14.414;2022-11-20T09:08:39;-2.30;99.90
45761;DHT22;31471;51.040;14.414;2022-11-20T09:11:05;-2.30;99.90
45761;DHT22;31471;51.040;14.414;2022-11-20T09:13:32;-2.30;99.90
45761;DHT22;31471;51.040;14.414;2022-11-20T09:16:00;-2.20;99.90
45761;DHT22;31471;51.040;14.414;2022-11-20T09:18:27;-2.10;99.90
45761;DHT22;31471;51.040;14.414;2022-11-20T09:21:00;-2.20;99.90
45761;DHT22;31471;51.040;14.414;2022-11-20T09:23:27;-2.20;99.90
45761;DHT22;31471;51.040;14.414;2022-11-20T09:25:56;-2.30;99.90
45761;DHT22;31471;51.040;14.414;2022-11-20T09:28:25;-2.00;99.90
45761;DHT22;31471;51.040;14.414;2022-11-20T09:30:51;-2.00;99.90
45761;DHT22;31471;51.040;14.414;2022-11-20T09:33:17;-2.00;99.90
45761;DHT22;31471;51.040;14.414;2022-11-20T09:35:43;-2.00;99.90
45761;DHT22;31471;51.040;14.414;2022-11-20T09:38:09;-2.00;99.90
45761;DHT22;31471;51.040;14.414;2022-11-20T09:40:39;-1.90;99.90
45761;DHT22;31471;51.040;14.414;2022-11-20T09:46:38;-1.90;99.90
45761;DHT22;31471;51.040;14.414;2022-11-20T09:49:18;-1.80;99.90
45761;DHT22;31471;51.040;14.414;2022-11-20T09:54:22;-1.50;99.90
45761;DHT22;31471;51.040;14.414;2022-11-20T09:57:10;-1.50;99.90
45761;DHT22;31471;51.040;14.414;2022-11-20T09:59:58;-1.60;99.90
45761;DHT22;31471;51.040;14.414;2022-11-20T10:02:33;-1.50;99.90
45761;DHT22;31471;51.040;14.414;2022-11-20T10:07:48;-1.50;99.90
45761;DHT22;31471;51.040;14.414;2022-11-20T10:10:16;-1.60;99.90
45761;DHT22;31471;51.040;14.414;2022-11-20T10:15:34;-1.70;99.90
45761;DHT22;31471;51.040;14.414;2022-11-20T10:18:23;-1.70;99.90
45761;DHT22;31471;51.040;14.414;2022-11-20T10:24:02;-1.50;99.90
45761;DHT22;31471;51.040;14.414;2022-11-20T10:26:47;-1.40;99.90
45761;DHT22;31471;51.040;14.414;2022-11-20T10:29:18;-1.30;99.90
45761;DHT22;31471;51.040;14.414;2022-11-20T10:31:53;-1.40;99.90
45761;DHT22;31471;51.040;14.414;2022-11-20T10:34:38;-1.30;99.90
45761;DHT22;31471;51.040;14.414;2022-11-20T10:37:16;-1.40;99.90
45761;DHT22;31471;51.040;14.414;2022-11-20T10:40:00;-1.20;99.90
45761;DHT22;31471;51.040;14.414;2022-11-20T10:42:36;-1.10;99.90
45761;DHT22;31471;51.040;14.414;2022-11-20T10:47:39;-1.20;99.90
45761;DHT22;31471;51.040;14.414;2022-11-20T10:50:08;-1.30;99.90
45761;DHT22;31471;51.040;14.414;2022-11-20T10:55:55;-1.00;99.90
45761;DHT22;31471;51.040;14.414;2022-11-20T11:01:17;-1.00;99.90
45761;DHT22;31471;51.040;14.414;2022-11-20T11:03:44;-1.00;99.90
45761;DHT22;31471;51.040;14.414;2022-11-20T11:08:53;-1.10;99.90
45761;DHT22;31471;51.040;14.414;2022-11-20T11:11:33;-1.10;99.90
45761;DHT22;31471;51.040;14.414;2022-11-20T11:14:10;-1.20;99.90
45761;DHT22;31471;51.040;14.414;2022-11-20T11:16:53;-1.30;99.90
45761;DHT22;31471;51.040;14.414;2022-11-20T11:19:18;-1.20;99.90
45761;DHT22;31471;51.040;14.414;2022-11-20T11:21:50;-1.30;99.90
45761;DHT22;31471;51.040;14.414;2022-11-20T11:24:28;-1.30;99.90
45761;DHT22;31471;51.040;14.414;2022-11-20T11:26:57;-1.20;99.90
45761;DHT22;31471;51.040;14.414;2022-11-20T11:29:23;-1.10;99.90
45761;DHT22;31471;51.040;14.414;2022-11-20T11:31:49;-1.00;99.90
45761;DHT22;31471;51.040;14.414;2022-11-20T11:34:16;-0.90;99.90
45761;DHT22;31471;51.040;14.414;2022-11-20T11:36:53;-0.90;99.90
45761;DHT22;31471;51.040;14.414;2022-11-20T11:39:20;-0.60;99.90
45761;DHT22;31471;51.040;14.414;2022-11-20T11:41:47;-0.70;99.90
45761;DHT22;31471;51.040;14.414;2022-11-20T11:47:02;-0.90;99.90
45761;DHT22;31471;51.040;14.414;2022-11-20T11:49:28;-0.80;99.90
45761;DHT22;31471;51.040;14.414;2022-11-20T11:52:13;-0.70;99.90
45761;DHT22;31471;51.040;14.414;2022-11-20T11:54:52;-0.70;99.90
45761;DHT22;31471;51.040;14.414;2022-11-20T12:00:16;-0.80;99.90
45761;DHT22;31471;51.040;14.414;2022-11-20T12:02:56;-0.80;99.90
45761;DHT22;31471;51.040;14.414;2022-11-20T12:05:34;-0.80;99.90
45761;DHT22;31471;51.040;14.414;2022-11-20T12:16:39;-0.70;99.90
45761;DHT22;31471;51.040;14.414;2022-11-20T12:19:12;-0.50;99.90
45761;DHT22;31471;51.040;14.414;2022-11-20T12:30:11;-0.60;99.90
45761;DHT22;31471;51.040;14.414;2022-11-20T12:35:44;-0.50;99.90
45761;DHT22;31471;51.040;14.414;2022-11-20T12:45:02;-0.50;99.90
45761;DHT22;31471;51.040;14.414;2022-11-20T12:48:13;-0.50;99.90
45761;DHT22;31471;51.040;14.414;2022-11-20T13:01:55;-0.70;99.90
45761;DHT22;31471;51.040;14.414;2022-11-20T13:04:45;-0.70;99.90
45761;DHT22;31471;51.040;14.414;2022-11-20T13:07:10;-0.70;99.90
45761;DHT22;31471;51.040;14.414;2022-11-20T13:09:46;-0.60;99.90
45761;DHT22;31471;51.040;14.414;2022-11-20T13:12:40;-0.60;99.90
45761;DHT22;31471;51.040;14.414;2022-11-20T13:15:33;-0.60;99.90
45761;DHT22;31471;51.040;14.414;2022-11-20T13:18:03;-0.50;99.90
45761;DHT22;31471;51.040;14.414;2022-11-20T13:20:30;-0.50;99.90
45761;DHT22;31471;51.040;14.414;2022-11-20T13:22:58;-0.40;99.90
45761;DHT22;31471;51.040;14.414;2022-11-20T13:27:54;-0.20;99.90
45761;DHT22;31471;51.040;14.414;2022-11-20T13:30:21;-0.30;99.90
45761;DHT22;31471;51.040;14.414;2022-11-20T13:33:02;-0.30;99.90
45761;DHT22;31471;51.040;14.414;2022-11-20T13:35:33;-0.30;99.90
45761;DHT22;31471;51.040;14.414;2022-11-20T13:38:10;-0.10;99.90
45761;DHT22;31471;51.040;14.414;2022-11-20T13:40:39;-0.10;99.90
45761;DHT22;31471;51.040;14.414;2022-11-20T13:45:41;-0.20;99.90
45761;DHT22;31471;51.040;14.414;2022-11-20T13:48:25;-0.20;99.90
45761;DHT22;31471;51.040;14.414;2022-11-20T13:57:42;-0.20;99.90
45761;DHT22;31471;51.040;14.414;2022-11-20T14:02:36;-0.40;99.90
45761;DHT22;31471;51.040;14.414;2022-11-20T14:05:03;-0.40;99.90
45761;DHT22;31471;51.040;14.414;2022-11-20T14:07:37;-0.50;99.90
45761;DHT22;31471;51.040;14.414;2022-11-20T14:10:04;-0.50;99.90
45761;DHT22;31471;51.040;14.414;2022-11-20T14:12:32;-0.50;99.90
45761;DHT22;31471;51.040;14.414;2022-11-20T14:14:58;-0.50;99.90
45761;DHT22;31471;51.040;14.414;2022-11-20T14:17:34;-0.40;99.90
45761;DHT22;31471;51.040;14.414;2022-11-20T14:20:12;-0.40;99.90
45761;DHT22;31471;51.040;14.414;2022-11-20T14:22:39;-0.30;99.90
45761;DHT22;31471;51.040;14.414;2022-11-20T14:27:42;-0.30;99.90
45761;DHT22;31471;51.040;14.414;2022-11-20T14:30:15;-0.50;99.90
45761;DHT22;31471;51.040;14.414;2022-11-20T14:32:41;-0.50;99.90
45761;DHT22;31471;51.040;14.414;2022-11-20T14:35:09;-0.40;99.90
45761;DHT22;31471;51.040;14.414;2022-11-20T14:37:40;-0.50;99.90
45761;DHT22;31471;51.040;14.414;2022-11-20T14:40:31;-0.50;99.90
45761;DHT22;31471;51.040;14.414;2022-11-20T14:42:58;-0.50;99.90
45761;DHT22;31471;51.040;14.414;2022-11-20T14:45:25;-0.40;99.90
45761;DHT22;31471;51.040;14.414;2022-11-20T14:47:53;-0.30;99.90
45761;DHT22;31471;51.040;14.414;2022-11-20T14:50:25;-0.40;99.90
45761;DHT22;31471;51.040;14.414;2022-11-20T14:52:57;-0.40;99.90
45761;DHT22;31471;51.040;14.414;2022-11-20T14:55:40;-0.30;99.90
45761;DHT22;31471;51.040;14.414;2022-11-20T14:58:20;-0.20;99.90
45761;DHT22;31471;51.040;14.414;2022-11-20T15:01:00;-0.40;99.90
45761;DHT22;31471;51.040;14.414;2022-11-20T15:03:37;-0.30;99.90
45761;DHT22;31471;51.040;14.414;2022-11-20T15:06:05;-0.30;99.90
45761;DHT22;31471;51.040;14.414;2022-11-20T15:08:30;-0.30;99.90
45761;DHT22;31471;51.040;14.414;2022-11-20T15:10:56;-0.30;99.90
45761;DHT22;31471;51.040;14.414;2022-11-20T15:15:54;-0.40;99.90
45761;DHT22;31471;51.040;14.414;2022-11-20T15:18:28;-0.40;99.90
45761;DHT22;31471;51.040;14.414;2022-11-20T15:20:55;-0.50;99.90
45761;DHT22;31471;51.040;14.414;2022-11-20T15:23:22;-0.60;99.90
45761;DHT22;31471;51.040;14.414;2022-11-20T15:25:48;-0.70;99.90
45761;DHT22;31471;51.040;14.414;2022-11-20T15:28:18;-0.70;99.90
45761;DHT22;31471;51.040;14.414;2022-11-20T15:30:46;-0.70;99.90
45761;DHT22;31471;51.040;14.414;2022-11-20T15:33:12;-0.70;99.90
45761;DHT22;31471;51.040;14.414;2022-11-20T15:35:38;-0.60;99.90
45761;DHT22;31471;51.040;14.414;2022-11-20T15:38:05;-0.60;99.90
45761;DHT22;31471;51.040;14.414;2022-11-20T15:40:32;-0.70;99.90
45761;DHT22;31471;51.040;14.414;2022-11-20T15:42:57;-0.70;99.90
45761;DHT22;31471;51.040;14.414;2022-11-20T15:45:31;-0.60;99.90
45761;DHT22;31471;51.040;14.414;2022-11-20T15:47:59;-0.70;99.90
45761;DHT22;31471;51.040;14.414;2022-11-20T15:50:35;-0.60;99.90
45761;DHT22;31471;51.040;14.414;2022-11-20T15:53:01;-0.50;99.90
45761;DHT22;31471;51.040;14.414;2022-11-20T15:55:27;-0.40;99.90
45761;DHT22;31471;51.040;14.414;2022-11-20T15:57:52;-0.50;99.90
45761;DHT22;31471;51.040;14.414;2022-11-20T16:00:18;-0.50;99.90
45761;DHT22;31471;51.040;14.414;2022-11-20T16:02:44;-0.60;99.90
45761;DHT22;31471;51.040;14.414;2022-11-20T16:05:11;-0.60;99.90
45761;DHT22;31471;51.040;14.414;2022-11-20T16:07:37;-0.70;99.90
45761;DHT22;31471;51.040;14.414;2022-11-20T16:10:03;-0.80;99.90
45761;DHT22;31471;51.040;14.414;2022-11-20T16:12:29;-0.90;99.90
45761;DHT22;31471;51.040;14.414;2022-11-20T16:15:13;-0.90;99.90
45761;DHT22;31471;51.040;14.414;2022-11-20T16:17:57;-1.00;99.90
45761;DHT22;31471;51.040;14.414;2022-11-20T16:20:23;-1.00;99.90
45761;DHT22;31471;51.040;14.414;2022-11-20T16:22:48;-1.20;99.90
45761;DHT22;31471;51.040;14.414;2022-11-20T16:25:14;-1.20;99.90
45761;DHT22;31471;51.040;14.414;2022-11-20T16:27:39;-1.20;99.90
45761;DHT22;31471;51.040;14.414;2022-11-20T16:30:05;-1.30;99.90
45761;DHT22;31471;51.040;14.414;2022-11-20T16:32:32;-1.30;99.90
45761;DHT22;31471;51.040;14.414;2022-11-20T16:34:57;-1.50;99.90
45761;DHT22;31471;51.040;14.414;2022-11-20T16:37:23;-1.50;99.90
45761;DHT22;31471;51.040;14.414;2022-11-20T16:39:48;-1.60;99.90
45761;DHT22;31471;51.040;14.414;2022-11-20T16:42:14;-1.60;99.90
45761;DHT22;31471;51.040;14.414;2022-11-20T16:44:40;-1.60;99.90
45761;DHT22;31471;51.040;14.414;2022-11-20T16:47:05;-1.70;99.90
45761;DHT22;31471;51.040;14.414;2022-11-20T16:49:31;-1.80;99.90
45761;DHT22;31471;51.040;14.414;2022-11-20T16:51:58;-1.80;99.90
45761;DHT22;31471;51.040;14.414;2022-11-20T16:54:23;-1.80;99.90
45761;DHT22;31471;51.040;14.414;2022-11-20T16:56:49;-1.80;99.90